CheckWX is a tool to help pilots better visualize weather data.  It is not intended as a substitute for an official pre-flight weather briefing.

12:00:35 UTC

KHHF METAR
Hemphill County Airport
Canadian, Texas, USA
Current

26 mins ago

KHHF 251135Z AUTO 00000KT 10SM SCT085 07/06 A3025 RMK AO2 T00700060
Observed
Mar-25 @ 11:35 UTC
Visibility
10 SM
Flight Rules
VFR
Cloud Levels
  • Scattered at 8,500' AGL
Temperature
C / 45°F
Dewpoint
C / 43°F
Humidity
93%
Altimeter
30.25" Hg
Pressure
1024.42 hPa
Previous

46 mins ago

KHHF 251115Z AUTO 00000KT 10SM SCT085 08/06 A3024 RMK AO2 T00750062
Observed
Mar-25 @ 11:15 UTC
Visibility
10 SM
Flight Rules
VFR
Cloud Levels
  • Scattered at 8,500' AGL
Temperature
C / 46°F
Dewpoint
C / 43°F
Humidity
87%
Altimeter
30.24" Hg
Pressure
1024.02 hPa
Previous

1 hour ago

KHHF 251055Z AUTO 00000KT 10SM CLR 08/07 A3023 RMK AO2 T00760065
Observed
Mar-25 @ 10:55 UTC
Visibility
10 SM
Flight Rules
VFR
Cloud Levels
  • Clear skies
Temperature
C / 46°F
Dewpoint
C / 45°F
Humidity
93%
Altimeter
30.23" Hg
Pressure
1023.72 hPa